PWSweather.com
Personal Weather Stations
Station Observations
ISYDDANM23
Felsted, AabenraaDK 6200

FelstedAabenraaDK 6200

Lat: 54.977066, Lon: 9.507192

Elevation: 135

Station Type: Davis Vantage Pro 2 Plus 24H

http://www.valkaer.dk

High Low Average
Temperature 65.5°F18.6°C 56.9°F13.8°C 60.0°F15.6°C
Dew Point 57.3°F14.1°C 52.4°F11.3°C 54.6°F12.6°C
Winds 11.5 mph 18.5 kmh Calm Calm 6.0 mph ESE9.7 kmh ESE
Wind Gusts 18.4 mph29.6 kmh -- 9.0 mph14.5 kmh
Humidity 89% 71% 83%
Pressure 29.97 in1014.9 mb 29.87 in1011.5 mb -
Precipitation 0.00 in0.0 mm - -
Hour Temp Dew Point Humidity Winds Wind Gusts Pressure Precip Precip Rate Daily Precip Total
12:00 AM 59.0°F15.0°C 52.8°F11.6°C 80% 3.5 mph ESE5.6 kmh ESE 6.9 mph11.1 kmh 29.88 in1011.9 mb - 0.00 in0.0 mm 0.00 in0.0 mm
12:10 AM 58.8°F14.9°C 52.6°F11.4°C 80% 5.8 mph E9.3 kmh E 8.1 mph13.0 kmh 29.87 in1011.5 mb - 0.00 in0.0 mm 0.00 in0.0 mm
12:15 AM 58.8°F14.9°C 52.6°F11.4°C 80% 3.5 mph E5.6 kmh E 6.9 mph11.1 kmh 29.88 in1011.9 mb - 0.00 in0.0 mm 0.00 in0.0 mm
12:20 AM 58.6°F14.8°C 52.5°F11.4°C 80% 3.5 mph ESE5.6 kmh ESE 6.9 mph11.1 kmh 29.88 in1011.9 mb - 0.00 in0.0 mm 0.00 in0.0 mm
12:25 AM 58.5°F14.7°C 52.7°F11.5°C 81% 3.5 mph E5.6 kmh E 5.8 mph9.3 kmh 29.88 in1011.9 mb - 0.00 in0.0 mm 0.00 in0.0 mm
12:30 AM 58.5°F14.7°C 52.7°F11.5°C 81% 4.6 mph E7.4 kmh E 5.8 mph9.3 kmh 29.88 in1011.9 mb - 0.00 in0.0 mm 0.00 in0.0 mm
12:35 AM 58.5°F14.7°C 52.7°F11.5°C 81% 3.5 mph E5.6 kmh E 10.4 mph16.7 kmh 29.88 in1011.9 mb - 0.00 in0.0 mm 0.00 in0.0 mm
12:40 AM 58.6°F14.8°C 52.8°F11.6°C 81% 5.8 mph E9.3 kmh E 10.4 mph16.7 kmh 29.88 in1011.9 mb - 0.00 in0.0 mm 0.00 in0.0 mm
12:45 AM 58.5°F14.7°C 52.7°F11.5°C 81% 4.6 mph E7.4 kmh E 8.1 mph13.0 kmh 29.88 in1011.9 mb - 0.00 in0.0 mm 0.00 in0.0 mm
12:50 AM 58.4°F14.7°C 52.6°F11.4°C 81% 3.5 mph E5.6 kmh E 5.8 mph9.3 kmh 29.88 in1011.9 mb - 0.00 in0.0 mm 0.00 in0.0 mm
12:55 AM 58.4°F14.7°C 52.6°F11.4°C 81% 2.3 mph E3.7 kmh E 10.4 mph16.7 kmh 29.88 in1011.9 mb - 0.00 in0.0 mm 0.00 in0.0 mm
01:00 AM 58.3°F14.6°C 52.5°F11.4°C 81% 3.5 mph E5.6 kmh E 6.9 mph11.1 kmh 29.88 in1011.9 mb - 0.00 in0.0 mm 0.00 in0.0 mm
01:10 AM 57.9°F14.4°C 52.4°F11.3°C 82% 3.5 mph E5.6 kmh E 5.8 mph9.3 kmh 29.88 in1011.9 mb - 0.00 in0.0 mm 0.00 in0.0 mm
01:15 AM 57.9°F14.4°C 52.4°F11.3°C 82% 5.8 mph E9.3 kmh E 9.2 mph14.8 kmh 29.88 in1011.9 mb - 0.00 in0.0 mm 0.00 in0.0 mm
01:20 AM 58.1°F14.5°C 52.6°F11.4°C 82% 4.6 mph E7.4 kmh E 8.1 mph13.0 kmh 29.88 in1011.9 mb - 0.00 in0.0 mm 0.00 in0.0 mm
01:25 AM 58.0°F14.4°C 52.6°F11.4°C 82% 4.6 mph E7.4 kmh E 8.1 mph13.0 kmh 29.88 in1011.9 mb - 0.00 in0.0 mm 0.00 in0.0 mm
01:30 AM 58.1°F14.5°C 52.7°F11.5°C 82% 4.6 mph E7.4 kmh E 10.4 mph16.7 kmh 29.88 in1011.9 mb - 0.00 in0.0 mm 0.00 in0.0 mm
01:35 AM 58.1°F14.5°C 52.6°F11.4°C 82% 5.8 mph E9.3 kmh E 9.2 mph14.8 kmh 29.88 in1011.9 mb - 0.00 in0.0 mm 0.00 in0.0 mm
01:40 AM 58.2°F14.6°C 52.4°F11.3°C 81% 5.8 mph E9.3 kmh E 10.4 mph16.7 kmh 29.88 in1011.9 mb - 0.00 in0.0 mm 0.00 in0.0 mm
01:45 AM 58.1°F14.5°C 52.6°F11.4°C 82% 5.8 mph E9.3 kmh E 11.5 mph18.5 kmh 29.88 in1011.9 mb - 0.00 in0.0 mm 0.00 in0.0 mm
01:50 AM 58.1°F14.5°C 52.6°F11.4°C 82% 6.9 mph E11.1 kmh E 10.4 mph16.7 kmh 29.88 in1011.9 mb - 0.00 in0.0 mm 0.00 in0.0 mm
01:55 AM 58.0°F14.4°C 52.6°F11.4°C 82% 6.9 mph E11.1 kmh E 11.5 mph18.5 kmh 29.88 in1011.9 mb - 0.00 in0.0 mm 0.00 in0.0 mm
02:00 AM 58.0°F14.4°C 52.6°F11.4°C 82% 5.8 mph ESE9.3 kmh ESE 10.4 mph16.7 kmh 29.88 in1011.9 mb - 0.00 in0.0 mm 0.00 in0.0 mm
02:10 AM 57.9°F14.4°C 52.4°F11.3°C 82% 6.9 mph ESE11.1 kmh ESE 9.2 mph14.8 kmh 29.88 in1011.9 mb - 0.00 in0.0 mm 0.00 in0.0 mm
02:15 AM 57.8°F14.3°C 52.7°F11.5°C 83% 5.8 mph E9.3 kmh E 11.5 mph18.5 kmh 29.88 in1011.9 mb - 0.00 in0.0 mm 0.00 in0.0 mm
02:20 AM 57.7°F14.3°C 52.6°F11.4°C 83% 5.8 mph ESE9.3 kmh ESE 11.5 mph18.5 kmh 29.88 in1011.9 mb - 0.00 in0.0 mm 0.00 in0.0 mm
02:25 AM 57.6°F14.2°C 52.8°F11.6°C 84% 6.9 mph E11.1 kmh E 11.5 mph18.5 kmh 29.88 in1011.9 mb - 0.00 in0.0 mm 0.00 in0.0 mm
02:30 AM 57.5°F14.2°C 52.7°F11.5°C 84% 6.9 mph E11.1 kmh E 11.5 mph18.5 kmh 29.88 in1011.9 mb - 0.00 in0.0 mm 0.00 in0.0 mm
02:35 AM 57.5°F14.2°C 52.7°F11.5°C 84% 4.6 mph ESE7.4 kmh ESE 12.7 mph20.4 kmh 29.88 in1011.9 mb - 0.00 in0.0 mm 0.00 in0.0 mm
02:40 AM 57.4°F14.1°C 52.9°F11.6°C 85% 5.8 mph SE9.3 kmh SE 9.2 mph14.8 kmh 29.88 in1011.9 mb - 0.00 in0.0 mm 0.00 in0.0 mm
02:45 AM 57.3°F14.1°C 52.8°F11.6°C 85% 5.8 mph SE9.3 kmh SE 10.4 mph16.7 kmh 29.88 in1011.9 mb - 0.00 in0.0 mm 0.00 in0.0 mm
02:50 AM 57.2°F14.0°C 52.7°F11.5°C 85% 4.6 mph E7.4 kmh E 9.2 mph14.8 kmh 29.89 in1012.2 mb - 0.00 in0.0 mm 0.00 in0.0 mm
02:55 AM 57.2°F14.0°C 53.0°F11.7°C 86% 5.8 mph ESE9.3 kmh ESE 11.5 mph18.5 kmh 29.88 in1011.9 mb - 0.00 in0.0 mm 0.00 in0.0 mm
03:00 AM 57.2°F14.0°C 53.0°F11.7°C 86% 6.9 mph SE11.1 kmh SE 10.4 mph16.7 kmh 29.88 in1011.9 mb - 0.00 in0.0 mm 0.00 in0.0 mm
03:10 AM 57.2°F14.0°C 53.4°F11.9°C 87% 5.8 mph SE9.3 kmh SE 9.2 mph14.8 kmh 29.89 in1012.2 mb - 0.00 in0.0 mm 0.00 in0.0 mm
03:15 AM 57.2°F14.0°C 53.7°F12.1°C 88% 5.8 mph E9.3 kmh E 9.2 mph14.8 kmh 29.89 in1012.2 mb - 0.00 in0.0 mm 0.00 in0.0 mm
03:20 AM 57.2°F14.0°C 53.7°F12.1°C 88% 5.8 mph E9.3 kmh E 10.4 mph16.7 kmh 29.89 in1012.2 mb - 0.00 in0.0 mm 0.00 in0.0 mm
03:25 AM 57.4°F14.1°C 53.8°F12.1°C 88% 5.8 mph E9.3 kmh E 10.4 mph16.7 kmh 29.89 in1012.2 mb - 0.00 in0.0 mm 0.00 in0.0 mm
03:30 AM 57.5°F14.2°C 54.0°F12.2°C 88% 5.8 mph E9.3 kmh E 10.4 mph16.7 kmh 29.89 in1012.2 mb - 0.00 in0.0 mm 0.00 in0.0 mm
03:35 AM 57.6°F14.2°C 54.3°F12.4°C 89% 6.9 mph ESE11.1 kmh ESE 13.8 mph22.2 kmh 29.89 in1012.2 mb - 0.00 in0.0 mm 0.00 in0.0 mm
03:40 AM 57.6°F14.2°C 54.4°F12.4°C 89% 6.9 mph E11.1 kmh E 11.5 mph18.5 kmh 29.90 in1012.5 mb - 0.00 in0.0 mm 0.00 in0.0 mm
03:45 AM 57.6°F14.2°C 54.4°F12.4°C 89% 8.1 mph E13.0 kmh E 12.7 mph20.4 kmh 29.89 in1012.2 mb - 0.00 in0.0 mm 0.00 in0.0 mm
03:50 AM 57.6°F14.2°C 54.4°F12.4°C 89% 6.9 mph ESE11.1 kmh ESE 12.7 mph20.4 kmh 29.89 in1012.2 mb - 0.00 in0.0 mm 0.00 in0.0 mm
03:55 AM 57.6°F14.2°C 54.4°F12.4°C 89% 9.2 mph E14.8 kmh E 12.7 mph20.4 kmh 29.89 in1012.2 mb - 0.00 in0.0 mm 0.00 in0.0 mm
04:00 AM 57.6°F14.2°C 54.3°F12.4°C 89% 5.8 mph E9.3 kmh E 11.5 mph18.5 kmh 29.89 in1012.2 mb - 0.00 in0.0 mm 0.00 in0.0 mm
04:10 AM 57.5°F14.2°C 54.0°F12.2°C 88% 5.8 mph E9.3 kmh E 10.4 mph16.7 kmh 29.89 in1012.2 mb - 0.00 in0.0 mm 0.00 in0.0 mm
04:15 AM 57.5°F14.2°C 54.0°F12.2°C 88% 5.8 mph E9.3 kmh E 8.1 mph13.0 kmh 29.89 in1012.2 mb - 0.00 in0.0 mm 0.00 in0.0 mm
04:20 AM 57.4°F14.1°C 53.9°F12.2°C 88% 8.1 mph E13.0 kmh E 16.1 mph25.9 kmh 29.89 in1012.2 mb - 0.00 in0.0 mm 0.00 in0.0 mm
04:25 AM 57.5°F14.2°C 53.9°F12.2°C 88% 6.9 mph E11.1 kmh E 10.4 mph16.7 kmh 29.90 in1012.5 mb - 0.00 in0.0 mm 0.00 in0.0 mm
04:30 AM 57.4°F14.1°C 53.9°F12.2°C 88% 6.9 mph E11.1 kmh E 10.4 mph16.7 kmh 29.89 in1012.2 mb - 0.00 in0.0 mm 0.00 in0.0 mm
04:35 AM 57.4°F14.1°C 53.9°F12.2°C 88% 6.9 mph E11.1 kmh E 11.5 mph18.5 kmh 29.90 in1012.5 mb - 0.00 in0.0 mm 0.00 in0.0 mm
04:40 AM 57.4°F14.1°C 53.9°F12.2°C 88% 6.9 mph E11.1 kmh E 10.4 mph16.7 kmh 29.90 in1012.5 mb - 0.00 in0.0 mm 0.00 in0.0 mm
04:45 AM 57.4°F14.1°C 53.9°F12.2°C 88% 5.8 mph E9.3 kmh E 11.5 mph18.5 kmh 29.90 in1012.5 mb - 0.00 in0.0 mm 0.00 in0.0 mm
04:50 AM 57.4°F14.1°C 53.9°F12.2°C 88% 6.9 mph E11.1 kmh E 12.7 mph20.4 kmh 29.90 in1012.5 mb - 0.00 in0.0 mm 0.00 in0.0 mm
04:55 AM 57.3°F14.1°C 53.8°F12.1°C 88% 8.1 mph E13.0 kmh E 11.5 mph18.5 kmh 29.90 in1012.5 mb - 0.00 in0.0 mm 0.00 in0.0 mm
05:00 AM 57.3°F14.1°C 53.8°F12.1°C 88% 6.9 mph E11.1 kmh E 11.5 mph18.5 kmh 29.90 in1012.5 mb - 0.00 in0.0 mm 0.00 in0.0 mm
05:10 AM 57.2°F14.0°C 53.7°F12.1°C 88% 5.8 mph E9.3 kmh E 10.4 mph16.7 kmh 29.90 in1012.5 mb - 0.00 in0.0 mm 0.00 in0.0 mm
05:15 AM 57.2°F14.0°C 53.7°F12.1°C 88% 8.1 mph E13.0 kmh E 11.5 mph18.5 kmh 29.90 in1012.5 mb - 0.00 in0.0 mm 0.00 in0.0 mm
05:20 AM 57.3°F14.1°C 53.8°F12.1°C 88% 4.6 mph E7.4 kmh E 9.2 mph14.8 kmh 29.90 in1012.5 mb - 0.00 in0.0 mm 0.00 in0.0 mm
05:25 AM 57.3°F14.1°C 53.8°F12.1°C 88% 6.9 mph E11.1 kmh E 11.5 mph18.5 kmh 29.90 in1012.5 mb - 0.00 in0.0 mm 0.00 in0.0 mm
05:30 AM 57.4°F14.1°C 53.9°F12.2°C 88% 8.1 mph E13.0 kmh E 12.7 mph20.4 kmh 29.90 in1012.5 mb - 0.00 in0.0 mm 0.00 in0.0 mm
05:35 AM 57.4°F14.1°C 53.9°F12.2°C 88% 6.9 mph ESE11.1 kmh ESE 11.5 mph18.5 kmh 29.90 in1012.5 mb - 0.00 in0.0 mm 0.00 in0.0 mm
05:40 AM 57.4°F14.1°C 53.9°F12.2°C 88% 6.9 mph E11.1 kmh E 11.5 mph18.5 kmh 29.90 in1012.5 mb - 0.00 in0.0 mm 0.00 in0.0 mm
05:45 AM 57.5°F14.2°C 54.0°F12.2°C 88% 6.9 mph ESE11.1 kmh ESE 12.7 mph20.4 kmh 29.90 in1012.5 mb - 0.00 in0.0 mm 0.00 in0.0 mm
05:50 AM 57.5°F14.2°C 54.0°F12.2°C 88% 6.9 mph E11.1 kmh E 11.5 mph18.5 kmh 29.90 in1012.5 mb - 0.00 in0.0 mm 0.00 in0.0 mm
05:55 AM 57.5°F14.2°C 54.0°F12.2°C 88% 6.9 mph E11.1 kmh E 10.4 mph16.7 kmh 29.90 in1012.5 mb - 0.00 in0.0 mm 0.00 in0.0 mm
06:00 AM 57.5°F14.2°C 54.0°F12.2°C 88% 6.9 mph E11.1 kmh E 11.5 mph18.5 kmh 29.90 in1012.5 mb - 0.00 in0.0 mm 0.00 in0.0 mm
06:10 AM 57.6°F14.2°C 54.1°F12.3°C 88% 4.6 mph ESE7.4 kmh ESE 5.8 mph9.3 kmh 29.90 in1012.5 mb - 0.00 in0.0 mm 0.00 in0.0 mm
06:15 AM 57.6°F14.2°C 54.1°F12.3°C 88% 6.9 mph E11.1 kmh E 10.4 mph16.7 kmh 29.91 in1012.9 mb - 0.00 in0.0 mm 0.00 in0.0 mm
06:20 AM 57.6°F14.2°C 54.1°F12.3°C 88% 5.8 mph ESE9.3 kmh ESE 11.5 mph18.5 kmh 29.91 in1012.9 mb - 0.00 in0.0 mm 0.00 in0.0 mm
06:25 AM 57.7°F14.3°C 54.1°F12.3°C 88% 4.6 mph E7.4 kmh E 12.7 mph20.4 kmh 29.91 in1012.9 mb - 0.00 in0.0 mm 0.00 in0.0 mm
06:30 AM 57.7°F14.3°C 54.2°F12.3°C 88% 6.9 mph E11.1 kmh E 11.5 mph18.5 kmh 29.91 in1012.9 mb - 0.00 in0.0 mm 0.00 in0.0 mm
06:35 AM 57.7°F14.3°C 54.2°F12.3°C 88% 5.8 mph SE9.3 kmh SE 10.4 mph16.7 kmh 29.91 in1012.9 mb - 0.00 in0.0 mm 0.00 in0.0 mm
06:40 AM 57.8°F14.3°C 54.2°F12.3°C 88% 5.8 mph ESE9.3 kmh ESE 10.4 mph16.7 kmh 29.91 in1012.9 mb - 0.00 in0.0 mm 0.00 in0.0 mm
06:45 AM 57.8°F14.3°C 54.3°F12.4°C 88% 6.9 mph E11.1 kmh E 10.4 mph16.7 kmh 29.91 in1012.9 mb - 0.00 in0.0 mm 0.00 in0.0 mm
06:50 AM 57.8°F14.3°C 54.3°F12.4°C 88% 6.9 mph E11.1 kmh E 10.4 mph16.7 kmh 29.91 in1012.9 mb - 0.00 in0.0 mm 0.00 in0.0 mm
06:55 AM 57.8°F14.3°C 54.3°F12.4°C 88% 5.8 mph ESE9.3 kmh ESE 8.1 mph13.0 kmh 29.91 in1012.9 mb - 0.00 in0.0 mm 0.00 in0.0 mm
07:00 AM 57.9°F14.4°C 54.3°F12.4°C 88% 5.8 mph E9.3 kmh E 11.5 mph18.5 kmh 29.91 in1012.9 mb - 0.00 in0.0 mm 0.00 in0.0 mm
07:10 AM 58.0°F14.4°C 54.4°F12.4°C 88% 5.8 mph ESE9.3 kmh ESE 8.1 mph13.0 kmh 29.91 in1012.9 mb - 0.00 in0.0 mm 0.00 in0.0 mm
07:15 AM 58.0°F14.4°C 54.5°F12.5°C 88% 6.9 mph E11.1 kmh E 10.4 mph16.7 kmh 29.91 in1012.9 mb - 0.00 in0.0 mm 0.00 in0.0 mm
07:20 AM 58.0°F14.4°C 54.5°F12.5°C 88% 8.1 mph SE13.0 kmh SE 9.2 mph14.8 kmh 29.92 in1013.2 mb - 0.00 in0.0 mm 0.00 in0.0 mm
07:25 AM 58.1°F14.5°C 54.5°F12.5°C 88% 6.9 mph ESE11.1 kmh ESE 12.7 mph20.4 kmh 29.92 in1013.2 mb - 0.00 in0.0 mm 0.00 in0.0 mm
07:30 AM 58.1°F14.5°C 54.6°F12.6°C 88% 5.8 mph ESE9.3 kmh ESE 10.4 mph16.7 kmh 29.92 in1013.2 mb - 0.00 in0.0 mm 0.00 in0.0 mm
07:35 AM 58.2°F14.6°C 54.7°F12.6°C 88% 5.8 mph E9.3 kmh E 12.7 mph20.4 kmh 29.92 in1013.2 mb - 0.00 in0.0 mm 0.00 in0.0 mm
07:40 AM 58.2°F14.6°C 54.3°F12.4°C 87% 8.1 mph ESE13.0 kmh ESE 11.5 mph18.5 kmh 29.92 in1013.2 mb - 0.00 in0.0 mm 0.00 in0.0 mm
07:45 AM 58.3°F14.6°C 54.4°F12.4°C 87% 5.8 mph ESE9.3 kmh ESE 10.4 mph16.7 kmh 29.92 in1013.2 mb - 0.00 in0.0 mm 0.00 in0.0 mm
07:50 AM 58.3°F14.6°C 54.5°F12.5°C 87% 5.8 mph E9.3 kmh E 9.2 mph14.8 kmh 29.92 in1013.2 mb - 0.00 in0.0 mm 0.00 in0.0 mm
07:55 AM 58.4°F14.7°C 54.5°F12.5°C 87% 6.9 mph E11.1 kmh E 11.5 mph18.5 kmh 29.92 in1013.2 mb - 0.00 in0.0 mm 0.00 in0.0 mm
08:00 AM 58.5°F14.7°C 54.6°F12.6°C 87% 6.9 mph E11.1 kmh E 8.1 mph13.0 kmh 29.92 in1013.2 mb - 0.00 in0.0 mm 0.00 in0.0 mm
08:10 AM 58.6°F14.8°C 54.7°F12.6°C 87% 6.9 mph E11.1 kmh E 11.5 mph18.5 kmh 29.92 in1013.2 mb - 0.00 in0.0 mm 0.00 in0.0 mm
08:15 AM 58.7°F14.8°C 54.8°F12.7°C 87% 5.8 mph E9.3 kmh E 11.5 mph18.5 kmh 29.93 in1013.5 mb - 0.00 in0.0 mm 0.00 in0.0 mm
08:20 AM 58.8°F14.9°C 54.9°F12.7°C 87% 3.5 mph SE5.6 kmh SE 6.9 mph11.1 kmh 29.93 in1013.5 mb - 0.00 in0.0 mm 0.00 in0.0 mm
08:25 AM 58.9°F14.9°C 54.7°F12.6°C 86% 6.9 mph ESE11.1 kmh ESE 8.1 mph13.0 kmh 29.93 in1013.5 mb - 0.00 in0.0 mm 0.00 in0.0 mm
08:30 AM 59.0°F15.0°C 54.8°F12.7°C 86% 8.1 mph E13.0 kmh E 11.5 mph18.5 kmh 29.93 in1013.5 mb - 0.00 in0.0 mm 0.00 in0.0 mm
08:35 AM 59.2°F15.1°C 55.0°F12.8°C 86% 4.6 mph ESE7.4 kmh ESE 9.2 mph14.8 kmh 29.93 in1013.5 mb - 0.00 in0.0 mm 0.00 in0.0 mm
08:40 AM 59.4°F15.2°C 54.9°F12.7°C 85% 6.9 mph SE11.1 kmh SE 10.4 mph16.7 kmh 29.93 in1013.5 mb - 0.00 in0.0 mm 0.00 in0.0 mm
08:45 AM 59.5°F15.3°C 55.0°F12.8°C 85% 6.9 mph ESE11.1 kmh ESE 11.5 mph18.5 kmh 29.93 in1013.5 mb - 0.00 in0.0 mm 0.00 in0.0 mm
08:50 AM 59.5°F15.3°C 55.0°F12.8°C 85% 8.1 mph E13.0 kmh E 11.5 mph18.5 kmh 29.93 in1013.5 mb - 0.00 in0.0 mm 0.00 in0.0 mm
08:55 AM 59.6°F15.3°C 55.0°F12.8°C 85% 9.2 mph SE14.8 kmh SE 12.7 mph20.4 kmh 29.94 in1013.9 mb - 0.00 in0.0 mm 0.00 in0.0 mm
09:00 AM 59.8°F15.4°C 55.0°F12.8°C 84% 6.9 mph SE11.1 kmh SE 10.4 mph16.7 kmh 29.94 in1013.9 mb - 0.00 in0.0 mm 0.00 in0.0 mm
09:10 AM 60.0°F15.6°C 55.2°F12.9°C 84% 6.9 mph SE11.1 kmh SE 10.4 mph16.7 kmh 29.94 in1013.9 mb - 0.00 in0.0 mm 0.00 in0.0 mm
09:15 AM 60.0°F15.6°C 55.2°F12.9°C 84% 3.5 mph SE5.6 kmh SE 11.5 mph18.5 kmh 29.94 in1013.9 mb - 0.00 in0.0 mm 0.00 in0.0 mm
09:20 AM 60.1°F15.6°C 55.2°F12.9°C 84% 5.8 mph ESE9.3 kmh ESE 16.1 mph25.9 kmh 29.94 in1013.9 mb - 0.00 in0.0 mm 0.00 in0.0 mm
09:25 AM 60.2°F15.7°C 55.0°F12.8°C 83% 4.6 mph ESE7.4 kmh ESE 15.0 mph24.1 kmh 29.94 in1013.9 mb - 0.00 in0.0 mm 0.00 in0.0 mm
09:30 AM 60.1°F15.6°C 54.9°F12.7°C 83% 9.2 mph E14.8 kmh E 15.0 mph24.1 kmh 29.94 in1013.9 mb - 0.00 in0.0 mm 0.00 in0.0 mm
09:35 AM 60.3°F15.7°C 54.8°F12.7°C 82% 9.2 mph ESE14.8 kmh ESE 12.7 mph20.4 kmh 29.94 in1013.9 mb - 0.00 in0.0 mm 0.00 in0.0 mm
09:40 AM 60.9°F16.1°C 55.3°F12.9°C 82% 10.4 mph SE16.7 kmh SE 15.0 mph24.1 kmh 29.94 in1013.9 mb - 0.00 in0.0 mm 0.00 in0.0 mm
09:45 AM 60.8°F16.0°C 54.9°F12.7°C 81% 6.9 mph ESE11.1 kmh ESE 10.4 mph16.7 kmh 29.94 in1013.9 mb - 0.00 in0.0 mm 0.00 in0.0 mm
09:50 AM 61.1°F16.2°C 55.2°F12.9°C 81% 6.9 mph ESE11.1 kmh ESE 11.5 mph18.5 kmh 29.94 in1013.9 mb - 0.00 in0.0 mm 0.00 in0.0 mm
09:55 AM 61.5°F16.4°C 55.6°F13.1°C 81% 9.2 mph SE14.8 kmh SE 13.8 mph22.2 kmh 29.94 in1013.9 mb - 0.00 in0.0 mm 0.00 in0.0 mm
10:00 AM 61.6°F16.4°C 55.4°F13.0°C 80% 9.2 mph SE14.8 kmh SE 12.7 mph20.4 kmh 29.94 in1013.9 mb - 0.00 in0.0 mm 0.00 in0.0 mm
10:10 AM 61.9°F16.6°C 55.7°F13.2°C 80% 10.4 mph SE16.7 kmh SE 12.7 mph20.4 kmh 29.94 in1013.9 mb - 0.00 in0.0 mm 0.00 in0.0 mm
10:15 AM 62.0°F16.7°C 55.4°F13.0°C 79% 9.2 mph SE14.8 kmh SE 15.0 mph24.1 kmh 29.94 in1013.9 mb - 0.00 in0.0 mm 0.00 in0.0 mm
10:20 AM 62.3°F16.8°C 55.7°F13.2°C 79% 8.1 mph SE13.0 kmh SE 13.8 mph22.2 kmh 29.94 in1013.9 mb - 0.00 in0.0 mm 0.00 in0.0 mm
10:25 AM 62.7°F17.1°C 55.7°F13.2°C 78% 9.2 mph SE14.8 kmh SE 11.5 mph18.5 kmh 29.94 in1013.9 mb - 0.00 in0.0 mm 0.00 in0.0 mm
10:30 AM 62.8°F17.1°C 55.8°F13.2°C 78% 5.8 mph SE9.3 kmh SE 15.0 mph24.1 kmh 29.94 in1013.9 mb - 0.00 in0.0 mm 0.00 in0.0 mm
10:35 AM 62.8°F17.1°C 55.5°F13.1°C 77% 9.2 mph ESE14.8 kmh ESE 13.8 mph22.2 kmh 29.94 in1013.9 mb - 0.00 in0.0 mm 0.00 in0.0 mm
10:40 AM 63.1°F17.3°C 56.1°F13.4°C 78% 9.2 mph SE14.8 kmh SE 17.3 mph27.8 kmh 29.93 in1013.5 mb - 0.00 in0.0 mm 0.00 in0.0 mm
10:45 AM 63.3°F17.4°C 56.3°F13.5°C 78% 8.1 mph SE13.0 kmh SE 12.7 mph20.4 kmh 29.93 in1013.5 mb - 0.00 in0.0 mm 0.00 in0.0 mm
10:50 AM 64.0°F17.8°C 56.2°F13.4°C 76% 10.4 mph SE16.7 kmh SE 12.7 mph20.4 kmh 29.93 in1013.5 mb - 0.00 in0.0 mm 0.00 in0.0 mm
10:55 AM 64.0°F17.8°C 55.9°F13.3°C 75% 8.1 mph SE13.0 kmh SE 11.5 mph18.5 kmh 29.93 in1013.5 mb - 0.00 in0.0 mm 0.00 in0.0 mm
11:00 AM 64.1°F17.8°C 55.2°F12.9°C 73% 10.4 mph SE16.7 kmh SE 12.7 mph20.4 kmh 29.93 in1013.5 mb - 0.00 in0.0 mm 0.00 in0.0 mm
11:10 AM 64.0°F17.8°C 55.6°F13.1°C 74% 11.5 mph SE18.5 kmh SE 17.3 mph27.8 kmh 29.93 in1013.5 mb - 0.00 in0.0 mm 0.00 in0.0 mm
11:15 AM 64.2°F17.9°C 55.4°F13.0°C 73% 6.9 mph ESE11.1 kmh ESE 15.0 mph24.1 kmh 29.93 in1013.5 mb - 0.00 in0.0 mm 0.00 in0.0 mm
11:20 AM 64.6°F18.1°C 55.7°F13.2°C 73% 6.9 mph E11.1 kmh E 10.4 mph16.7 kmh 29.93 in1013.5 mb - 0.00 in0.0 mm 0.00 in0.0 mm
11:25 AM 64.4°F18.0°C 55.2°F12.9°C 72% 9.2 mph SE14.8 kmh SE 15.0 mph24.1 kmh 29.93 in1013.5 mb - 0.00 in0.0 mm 0.00 in0.0 mm
11:30 AM 64.2°F17.9°C 55.4°F13.0°C 73% 6.9 mph SE11.1 kmh SE 11.5 mph18.5 kmh 29.93 in1013.5 mb - 0.00 in0.0 mm 0.00 in0.0 mm
11:35 AM 64.3°F17.9°C 55.5°F13.1°C 73% 9.2 mph SE14.8 kmh SE 12.7 mph20.4 kmh 29.93 in1013.5 mb - 0.00 in0.0 mm 0.00 in0.0 mm
11:40 AM 64.8°F18.2°C 55.9°F13.3°C 73% 8.1 mph SE13.0 kmh SE 11.5 mph18.5 kmh 29.93 in1013.5 mb - 0.00 in0.0 mm 0.00 in0.0 mm
11:45 AM 64.6°F18.1°C 55.4°F13.0°C 72% 10.4 mph SE16.7 kmh SE 13.8 mph22.2 kmh 29.94 in1013.9 mb - 0.00 in0.0 mm 0.00 in0.0 mm
11:50 AM 64.8°F18.2°C 56.7°F13.7°C 75% 8.1 mph SE13.0 kmh SE 12.7 mph20.4 kmh 29.93 in1013.5 mb - 0.00 in0.0 mm 0.00 in0.0 mm
11:55 AM 64.7°F18.2°C 57.0°F13.9°C 76% 6.9 mph SE11.1 kmh SE 11.5 mph18.5 kmh 29.94 in1013.9 mb - 0.00 in0.0 mm 0.00 in0.0 mm
12:00 PM 64.8°F18.2°C 57.1°F13.9°C 76% 8.1 mph SE13.0 kmh SE 11.5 mph18.5 kmh 29.94 in1013.9 mb - 0.00 in0.0 mm 0.00 in0.0 mm
12:10 PM 64.5°F18.1°C 56.4°F13.6°C 75% 9.2 mph SE14.8 kmh SE 15.0 mph24.1 kmh 29.94 in1013.9 mb - 0.00 in0.0 mm 0.00 in0.0 mm
12:15 PM 64.7°F18.2°C 56.2°F13.4°C 74% 10.4 mph SE16.7 kmh SE 18.4 mph29.6 kmh 29.93 in1013.5 mb - 0.00 in0.0 mm 0.00 in0.0 mm
12:20 PM 65.0°F18.3°C 57.3°F14.1°C 76% 8.1 mph SE13.0 kmh SE 13.8 mph22.2 kmh 29.93 in1013.5 mb - 0.00 in0.0 mm 0.00 in0.0 mm
12:25 PM 65.0°F18.3°C 57.2°F14.0°C 76% 9.2 mph SE14.8 kmh SE 15.0 mph24.1 kmh 29.93 in1013.5 mb - 0.00 in0.0 mm 0.00 in0.0 mm
12:30 PM 64.6°F18.1°C 56.5°F13.6°C 75% 10.4 mph SE16.7 kmh SE 15.0 mph24.1 kmh 29.93 in1013.5 mb - 0.00 in0.0 mm 0.00 in0.0 mm
12:35 PM 64.7°F18.2°C 56.2°F13.4°C 74% 9.2 mph SE14.8 kmh SE 15.0 mph24.1 kmh 29.93 in1013.5 mb - 0.00 in0.0 mm 0.00 in0.0 mm
12:40 PM 64.7°F18.2°C 56.6°F13.7°C 75% 11.5 mph SE18.5 kmh SE 17.3 mph27.8 kmh 29.93 in1013.5 mb - 0.00 in0.0 mm 0.00 in0.0 mm
12:45 PM 64.8°F18.2°C 56.3°F13.5°C 74% 10.4 mph SE16.7 kmh SE 13.8 mph22.2 kmh 29.93 in1013.5 mb - 0.00 in0.0 mm 0.00 in0.0 mm
12:50 PM 64.7°F18.2°C 56.5°F13.6°C 75% 9.2 mph SE14.8 kmh SE 13.8 mph22.2 kmh 29.93 in1013.5 mb - 0.00 in0.0 mm 0.00 in0.0 mm
12:55 PM 64.9°F18.3°C 56.4°F13.6°C 74% 10.4 mph SE16.7 kmh SE 16.1 mph25.9 kmh 29.93 in1013.5 mb - 0.00 in0.0 mm 0.00 in0.0 mm
01:00 PM 64.9°F18.3°C 56.8°F13.8°C 75% 9.2 mph SE14.8 kmh SE 12.7 mph20.4 kmh 29.93 in1013.5 mb - 0.00 in0.0 mm 0.00 in0.0 mm
01:10 PM 65.1°F18.4°C 56.2°F13.4°C 73% 5.8 mph SE9.3 kmh SE 11.5 mph18.5 kmh 29.93 in1013.5 mb - 0.00 in0.0 mm 0.00 in0.0 mm
01:15 PM 65.1°F18.4°C 55.9°F13.3°C 72% 9.2 mph SE14.8 kmh SE 12.7 mph20.4 kmh 29.93 in1013.5 mb - 0.00 in0.0 mm 0.00 in0.0 mm
01:20 PM 65.4°F18.6°C 55.7°F13.2°C 71% 6.9 mph SE11.1 kmh SE 11.5 mph18.5 kmh 29.93 in1013.5 mb - 0.00 in0.0 mm 0.00 in0.0 mm
01:25 PM 65.5°F18.6°C 56.6°F13.7°C 73% 6.9 mph SE11.1 kmh SE 10.4 mph16.7 kmh 29.93 in1013.5 mb - 0.00 in0.0 mm 0.00 in0.0 mm
01:30 PM 65.5°F18.6°C 56.2°F13.4°C 72% 10.4 mph SE16.7 kmh SE 17.3 mph27.8 kmh 29.93 in1013.5 mb - 0.00 in0.0 mm 0.00 in0.0 mm
01:35 PM 65.0°F18.3°C 56.1°F13.4°C 73% 9.2 mph SE14.8 kmh SE 11.5 mph18.5 kmh 29.93 in1013.5 mb - 0.00 in0.0 mm 0.00 in0.0 mm
01:40 PM 65.2°F18.4°C 56.7°F13.7°C 74% 6.9 mph ESE11.1 kmh ESE 11.5 mph18.5 kmh 29.93 in1013.5 mb - 0.00 in0.0 mm 0.00 in0.0 mm
01:45 PM 65.3°F18.5°C 56.4°F13.6°C 73% 6.9 mph SE11.1 kmh SE 13.8 mph22.2 kmh 29.93 in1013.5 mb - 0.00 in0.0 mm 0.00 in0.0 mm
01:50 PM 65.0°F18.3°C 56.1°F13.4°C 73% 10.4 mph SE16.7 kmh SE 12.7 mph20.4 kmh 29.93 in1013.5 mb - 0.00 in0.0 mm 0.00 in0.0 mm
01:55 PM 64.8°F18.2°C 56.0°F13.3°C 73% 8.1 mph SE13.0 kmh SE 16.1 mph25.9 kmh 29.93 in1013.5 mb - 0.00 in0.0 mm 0.00 in0.0 mm
02:00 PM 64.8°F18.2°C 55.9°F13.3°C 73% 10.4 mph SE16.7 kmh SE 17.3 mph27.8 kmh 29.93 in1013.5 mb - 0.00 in0.0 mm 0.00 in0.0 mm
02:10 PM 64.3°F17.9°C 55.9°F13.3°C 74% 10.4 mph SE16.7 kmh SE 15.0 mph24.1 kmh 29.93 in1013.5 mb - 0.00 in0.0 mm 0.00 in0.0 mm
02:15 PM 64.1°F17.8°C 56.0°F13.3°C 75% 9.2 mph SE14.8 kmh SE 11.5 mph18.5 kmh 29.94 in1013.9 mb - 0.00 in0.0 mm 0.00 in0.0 mm
02:20 PM 64.7°F18.2°C 56.2°F13.4°C 74% 10.4 mph SE16.7 kmh SE 15.0 mph24.1 kmh 29.94 in1013.9 mb - 0.00 in0.0 mm 0.00 in0.0 mm
02:25 PM 64.4°F18.0°C 55.9°F13.3°C 74% 8.1 mph SE13.0 kmh SE 10.4 mph16.7 kmh 29.93 in1013.5 mb - 0.00 in0.0 mm 0.00 in0.0 mm
02:30 PM 64.3°F17.9°C 55.8°F13.2°C 74% 9.2 mph SE14.8 kmh SE 13.8 mph22.2 kmh 29.93 in1013.5 mb - 0.00 in0.0 mm 0.00 in0.0 mm
02:35 PM 64.3°F17.9°C 55.8°F13.2°C 74% 9.2 mph SE14.8 kmh SE 15.0 mph24.1 kmh 29.93 in1013.5 mb - 0.00 in0.0 mm 0.00 in0.0 mm
02:40 PM 64.2°F17.9°C 56.1°F13.4°C 75% 9.2 mph SE14.8 kmh SE 12.7 mph20.4 kmh 29.93 in1013.5 mb - 0.00 in0.0 mm 0.00 in0.0 mm
02:45 PM 63.9°F17.7°C 55.8°F13.2°C 75% 8.1 mph SE13.0 kmh SE 13.8 mph22.2 kmh 29.93 in1013.5 mb - 0.00 in0.0 mm 0.00 in0.0 mm
02:50 PM 63.9°F17.7°C 55.8°F13.2°C 75% 10.4 mph SE16.7 kmh SE 13.8 mph22.2 kmh 29.93 in1013.5 mb - 0.00 in0.0 mm 0.00 in0.0 mm
02:55 PM 64.0°F17.8°C 56.2°F13.4°C 76% 9.2 mph SE14.8 kmh SE 12.7 mph20.4 kmh 29.93 in1013.5 mb - 0.00 in0.0 mm 0.00 in0.0 mm
03:00 PM 64.3°F17.9°C 56.5°F13.6°C 76% 8.1 mph SE13.0 kmh SE 13.8 mph22.2 kmh 29.93 in1013.5 mb - 0.00 in0.0 mm 0.00 in0.0 mm
03:10 PM 64.0°F17.8°C 56.3°F13.5°C 76% 9.2 mph SE14.8 kmh SE 11.5 mph18.5 kmh 29.93 in1013.5 mb - 0.00 in0.0 mm 0.00 in0.0 mm
03:15 PM 64.1°F17.8°C 56.0°F13.3°C 75% 10.4 mph SE16.7 kmh SE 15.0 mph24.1 kmh 29.93 in1013.5 mb - 0.00 in0.0 mm 0.00 in0.0 mm
03:20 PM 63.9°F17.7°C 55.8°F13.2°C 75% 9.2 mph SE14.8 kmh SE 11.5 mph18.5 kmh 29.93 in1013.5 mb - 0.00 in0.0 mm 0.00 in0.0 mm
03:25 PM 64.0°F17.8°C 55.6°F13.1°C 74% 9.2 mph SE14.8 kmh SE 13.8 mph22.2 kmh 29.93 in1013.5 mb - 0.00 in0.0 mm 0.00 in0.0 mm
03:30 PM 64.0°F17.8°C 55.2°F12.9°C 73% 10.4 mph SE16.7 kmh SE 11.5 mph18.5 kmh 29.93 in1013.5 mb - 0.00 in0.0 mm 0.00 in0.0 mm
03:35 PM 64.0°F17.8°C 55.2°F12.9°C 73% 9.2 mph SE14.8 kmh SE 12.7 mph20.4 kmh 29.93 in1013.5 mb - 0.00 in0.0 mm 0.00 in0.0 mm
03:40 PM 63.7°F17.6°C 55.2°F12.9°C 74% 8.1 mph SE13.0 kmh SE 13.8 mph22.2 kmh 29.92 in1013.2 mb - 0.00 in0.0 mm 0.00 in0.0 mm
03:45 PM 63.6°F17.6°C 55.6°F13.1°C 75% 8.1 mph SE13.0 kmh SE 12.7 mph20.4 kmh 29.93 in1013.5 mb - 0.00 in0.0 mm 0.00 in0.0 mm
03:50 PM 63.5°F17.5°C 55.1°F12.8°C 74% 9.2 mph SE14.8 kmh SE 11.5 mph18.5 kmh 29.93 in1013.5 mb - 0.00 in0.0 mm 0.00 in0.0 mm
03:55 PM 63.4°F17.4°C 54.6°F12.6°C 73% 5.8 mph SE9.3 kmh SE 11.5 mph18.5 kmh 29.93 in1013.5 mb - 0.00 in0.0 mm 0.00 in0.0 mm
04:00 PM 63.5°F17.5°C 54.7°F12.6°C 73% 8.1 mph SE13.0 kmh SE 11.5 mph18.5 kmh 29.93 in1013.5 mb - 0.00 in0.0 mm 0.00 in0.0 mm
04:10 PM 64.0°F17.8°C 55.2°F12.9°C 73% 8.1 mph SE13.0 kmh SE 12.7 mph20.4 kmh 29.93 in1013.5 mb - 0.00 in0.0 mm 0.00 in0.0 mm
04:15 PM 63.9°F17.7°C 55.1°F12.8°C 73% 8.1 mph SE13.0 kmh SE 11.5 mph18.5 kmh 29.93 in1013.5 mb - 0.00 in0.0 mm 0.00 in0.0 mm
04:20 PM 63.5°F17.5°C 55.0°F12.8°C 74% 5.8 mph SE9.3 kmh SE 10.4 mph16.7 kmh 29.93 in1013.5 mb - 0.00 in0.0 mm 0.00 in0.0 mm
04:25 PM 63.3°F17.4°C 54.5°F12.5°C 73% 5.8 mph SE9.3 kmh SE 9.2 mph14.8 kmh 29.93 in1013.5 mb - 0.00 in0.0 mm 0.00 in0.0 mm
04:30 PM 63.2°F17.3°C 54.8°F12.7°C 74% 4.6 mph SE7.4 kmh SE 8.1 mph13.0 kmh 29.93 in1013.5 mb - 0.00 in0.0 mm 0.00 in0.0 mm
04:35 PM 63.1°F17.3°C 55.0°F12.8°C 75% 3.5 mph ESE5.6 kmh ESE 6.9 mph11.1 kmh 29.93 in1013.5 mb - 0.00 in0.0 mm 0.00 in0.0 mm
04:40 PM 63.1°F17.3°C 55.8°F13.2°C 77% 5.8 mph E9.3 kmh E 9.2 mph14.8 kmh 29.93 in1013.5 mb - 0.00 in0.0 mm 0.00 in0.0 mm
04:45 PM 62.8°F17.1°C 56.2°F13.4°C 79% 5.8 mph E9.3 kmh E 8.1 mph13.0 kmh 29.94 in1013.9 mb - 0.00 in0.0 mm 0.00 in0.0 mm
04:50 PM 62.6°F17.0°C 56.0°F13.3°C 79% 2.3 mph E3.7 kmh E 6.9 mph11.1 kmh 29.94 in1013.9 mb - 0.00 in0.0 mm 0.00 in0.0 mm
04:55 PM 62.5°F16.9°C 55.9°F13.3°C 79% 4.6 mph ESE7.4 kmh ESE 9.2 mph14.8 kmh 29.94 in1013.9 mb - 0.00 in0.0 mm 0.00 in0.0 mm
05:00 PM 62.4°F16.9°C 56.1°F13.4°C 80% 4.6 mph SE7.4 kmh SE 8.1 mph13.0 kmh 29.94 in1013.9 mb - 0.00 in0.0 mm 0.00 in0.0 mm
05:10 PM 62.1°F16.7°C 55.9°F13.3°C 80% 3.5 mph SE5.6 kmh SE 5.8 mph9.3 kmh 29.94 in1013.9 mb - 0.00 in0.0 mm 0.00 in0.0 mm
05:15 PM 61.9°F16.6°C 55.7°F13.2°C 80% 1.2 mph SE1.9 kmh SE 3.5 mph5.6 kmh 29.94 in1013.9 mb - 0.00 in0.0 mm 0.00 in0.0 mm
05:20 PM 61.7°F16.5°C 55.8°F13.2°C 81% 1.2 mph ESE1.9 kmh ESE 3.5 mph5.6 kmh 29.94 in1013.9 mb - 0.00 in0.0 mm 0.00 in0.0 mm
05:25 PM 61.6°F16.4°C 55.7°F13.2°C 81% 3.5 mph SE5.6 kmh SE 6.9 mph11.1 kmh 29.94 in1013.9 mb - 0.00 in0.0 mm 0.00 in0.0 mm
05:30 PM 61.3°F16.3°C 55.8°F13.2°C 82% 2.3 mph SE3.7 kmh SE 3.5 mph5.6 kmh 29.94 in1013.9 mb - 0.00 in0.0 mm 0.00 in0.0 mm
05:35 PM 61.2°F16.2°C 55.7°F13.2°C 82% 2.3 mph SE3.7 kmh SE 3.5 mph5.6 kmh 29.94 in1013.9 mb - 0.00 in0.0 mm 0.00 in0.0 mm
05:40 PM 61.1°F16.2°C 55.9°F13.3°C 83% 2.3 mph ESE3.7 kmh ESE 3.5 mph5.6 kmh 29.94 in1013.9 mb - 0.00 in0.0 mm 0.00 in0.0 mm
05:45 PM 61.0°F16.1°C 55.8°F13.2°C 83% 1.2 mph ESE1.9 kmh ESE 2.3 mph3.7 kmh 29.94 in1013.9 mb - 0.00 in0.0 mm 0.00 in0.0 mm
05:50 PM 60.8°F16.0°C 55.6°F13.1°C 83% 3.5 mph ESE5.6 kmh ESE 3.5 mph5.6 kmh 29.94 in1013.9 mb - 0.00 in0.0 mm 0.00 in0.0 mm
05:55 PM 60.7°F15.9°C 55.5°F13.1°C 83% 2.3 mph SE3.7 kmh SE 3.5 mph5.6 kmh 29.94 in1013.9 mb - 0.00 in0.0 mm 0.00 in0.0 mm
06:00 PM 60.6°F15.9°C 55.4°F13.0°C 83% 1.2 mph SE1.9 kmh SE 3.5 mph5.6 kmh 29.94 in1013.9 mb - 0.00 in0.0 mm 0.00 in0.0 mm
06:10 PM 60.0°F15.6°C 54.9°F12.7°C 83% 2.3 mph SE3.7 kmh SE 3.5 mph5.6 kmh 29.95 in1014.2 mb - 0.00 in0.0 mm 0.00 in0.0 mm
06:15 PM 59.7°F15.4°C 54.9°F12.7°C 84% 1.2 mph SE1.9 kmh SE 2.3 mph3.7 kmh 29.95 in1014.2 mb - 0.00 in0.0 mm 0.00 in0.0 mm
06:20 PM 59.6°F15.3°C 54.8°F12.7°C 84% 2.3 mph SE3.7 kmh SE 3.5 mph5.6 kmh 29.95 in1014.2 mb - 0.00 in0.0 mm 0.00 in0.0 mm
06:25 PM 59.6°F15.3°C 54.7°F12.6°C 84% 2.3 mph ESE3.7 kmh ESE 3.5 mph5.6 kmh 29.95 in1014.2 mb - 0.00 in0.0 mm 0.00 in0.0 mm
06:30 PM 59.5°F15.3°C 54.6°F12.6°C 84% 2.3 mph E3.7 kmh E 3.5 mph5.6 kmh 29.95 in1014.2 mb - 0.00 in0.0 mm 0.00 in0.0 mm
06:35 PM 59.3°F15.2°C 54.5°F12.5°C 84% 2.3 mph E3.7 kmh E 3.5 mph5.6 kmh 29.95 in1014.2 mb - 0.00 in0.0 mm 0.00 in0.0 mm
06:40 PM 59.2°F15.1°C 54.4°F12.4°C 84% 2.3 mph E3.7 kmh E 4.6 mph7.4 kmh 29.95 in1014.2 mb - 0.00 in0.0 mm 0.00 in0.0 mm
06:45 PM 59.0°F15.0°C 54.5°F12.5°C 85% 3.5 mph E5.6 kmh E 5.8 mph9.3 kmh 29.95 in1014.2 mb - 0.00 in0.0 mm 0.00 in0.0 mm
06:50 PM 58.8°F14.9°C 54.3°F12.4°C 85% 3.5 mph E5.6 kmh E 8.1 mph13.0 kmh 29.95 in1014.2 mb - 0.00 in0.0 mm 0.00 in0.0 mm
06:55 PM 58.7°F14.8°C 54.2°F12.3°C 85% 3.5 mph SE5.6 kmh SE 4.6 mph7.4 kmh 29.96 in1014.6 mb - 0.00 in0.0 mm 0.00 in0.0 mm
07:00 PM 58.6°F14.8°C 54.1°F12.3°C 85% 2.3 mph E3.7 kmh E 3.5 mph5.6 kmh 29.96 in1014.6 mb - 0.00 in0.0 mm 0.00 in0.0 mm
07:10 PM 58.3°F14.6°C 54.1°F12.3°C 86% 3.5 mph E5.6 kmh E 4.6 mph7.4 kmh 29.95 in1014.2 mb - 0.00 in0.0 mm 0.00 in0.0 mm
07:15 PM 58.3°F14.6°C 54.1°F12.3°C 86% 3.5 mph ESE5.6 kmh ESE 5.8 mph9.3 kmh 29.96 in1014.6 mb - 0.00 in0.0 mm 0.00 in0.0 mm
07:20 PM 58.3°F14.6°C 54.1°F12.3°C 86% 3.5 mph E5.6 kmh E 5.8 mph9.3 kmh 29.96 in1014.6 mb - 0.00 in0.0 mm 0.00 in0.0 mm
07:25 PM 58.1°F14.5°C 54.0°F12.2°C 86% 2.3 mph E3.7 kmh E 3.5 mph5.6 kmh 29.96 in1014.6 mb - 0.00 in0.0 mm 0.00 in0.0 mm
07:30 PM 58.0°F14.4°C 53.8°F12.1°C 86% 2.3 mph E3.7 kmh E 3.5 mph5.6 kmh 29.96 in1014.6 mb - 0.00 in0.0 mm 0.00 in0.0 mm
07:35 PM 57.9°F14.4°C 53.7°F12.1°C 86% 3.5 mph E5.6 kmh E 5.8 mph9.3 kmh 29.96 in1014.6 mb - 0.00 in0.0 mm 0.00 in0.0 mm
07:40 PM 57.7°F14.3°C 53.5°F11.9°C 86% 2.3 mph E3.7 kmh E 3.5 mph5.6 kmh 29.96 in1014.6 mb - 0.00 in0.0 mm 0.00 in0.0 mm
07:45 PM 57.5°F14.2°C 53.3°F11.8°C 86% 2.3 mph E3.7 kmh E 3.5 mph5.6 kmh 29.96 in1014.6 mb - 0.00 in0.0 mm 0.00 in0.0 mm
07:50 PM 57.4°F14.1°C 53.6°F12.0°C 87% 1.2 mph E1.9 kmh E 4.6 mph7.4 kmh 29.96 in1014.6 mb - 0.00 in0.0 mm 0.00 in0.0 mm
07:55 PM 57.3°F14.1°C 53.5°F11.9°C 87% 1.2 mph ESE1.9 kmh ESE 3.5 mph5.6 kmh 29.96 in1014.6 mb - 0.00 in0.0 mm 0.00 in0.0 mm
08:00 PM 57.2°F14.0°C 53.4°F11.9°C 87% 2.3 mph E3.7 kmh E 3.5 mph5.6 kmh 29.96 in1014.6 mb - 0.00 in0.0 mm 0.00 in0.0 mm
08:10 PM 57.2°F14.0°C 53.4°F11.9°C 87% 2.3 mph E3.7 kmh E 3.5 mph5.6 kmh 29.96 in1014.6 mb - 0.00 in0.0 mm 0.00 in0.0 mm
08:15 PM 57.1°F13.9°C 53.2°F11.8°C 87% 1.2 mph ESE1.9 kmh ESE 3.5 mph5.6 kmh 29.96 in1014.6 mb - 0.00 in0.0 mm 0.00 in0.0 mm
08:20 PM 57.0°F13.9°C 53.2°F11.8°C 87% 2.3 mph ESE3.7 kmh ESE 3.5 mph5.6 kmh 29.96 in1014.6 mb - 0.00 in0.0 mm 0.00 in0.0 mm
08:25 PM 56.9°F13.8°C 53.1°F11.7°C 87% Calm Calm 2.3 mph3.7 kmh 29.96 in1014.6 mb - 0.00 in0.0 mm 0.00 in0.0 mm
08:30 PM 56.9°F13.8°C 53.4°F11.9°C 88% 1.2 mph ESE1.9 kmh ESE 2.3 mph3.7 kmh 29.97 in1014.9 mb - 0.00 in0.0 mm 0.00 in0.0 mm
08:35 PM 57.0°F13.9°C 53.5°F11.9°C 88% 1.2 mph SE1.9 kmh SE 3.5 mph5.6 kmh 29.97 in1014.9 mb - 0.00 in0.0 mm 0.00 in0.0 mm
08:40 PM 57.1°F13.9°C 53.6°F12.0°C 88% 2.3 mph ESE3.7 kmh ESE 2.3 mph3.7 kmh 29.97 in1014.9 mb - 0.00 in0.0 mm 0.00 in0.0 mm
08:45 PM 57.2°F14.0°C 53.7°F12.1°C 88% 1.2 mph SE1.9 kmh SE 3.5 mph5.6 kmh 29.97 in1014.9 mb - 0.00 in0.0 mm 0.00 in0.0 mm
08:50 PM 57.2°F14.0°C 53.7°F12.1°C 88% 1.2 mph SE1.9 kmh SE 2.3 mph3.7 kmh 29.97 in1014.9 mb - 0.00 in0.0 mm 0.00 in0.0 mm
08:55 PM 57.3°F14.1°C 53.8°F12.1°C 88% 2.3 mph SE3.7 kmh SE 3.5 mph5.6 kmh 29.97 in1014.9 mb - 0.00 in0.0 mm 0.00 in0.0 mm
09:00 PM 57.5°F14.2°C 54.0°F12.2°C 88% 3.5 mph SE5.6 kmh SE 5.8 mph9.3 kmh 29.97 in1014.9 mb - 0.00 in0.0 mm 0.00 in0.0 mm
09:10 PM 57.7°F14.3°C 54.1°F12.3°C 88% 2.3 mph SE3.7 kmh SE 3.5 mph5.6 kmh 29.97 in1014.9 mb - 0.00 in0.0 mm 0.00 in0.0 mm
09:15 PM 57.7°F14.3°C 54.2°F12.3°C 88% 2.3 mph E3.7 kmh E 3.5 mph5.6 kmh 29.96 in1014.6 mb - 0.00 in0.0 mm 0.00 in0.0 mm
09:20 PM 57.8°F14.3°C 54.2°F12.3°C 88% 2.3 mph SE3.7 kmh SE 3.5 mph5.6 kmh 29.96 in1014.6 mb - 0.00 in0.0 mm 0.00 in0.0 mm
09:25 PM 57.7°F14.3°C 53.9°F12.2°C 87% 3.5 mph E5.6 kmh E 4.6 mph7.4 kmh 29.97 in1014.9 mb - 0.00 in0.0 mm 0.00 in0.0 mm
09:30 PM 57.7°F14.3°C 53.9°F12.2°C 87% 3.5 mph SE5.6 kmh SE 3.5 mph5.6 kmh 29.97 in1014.9 mb - 0.00 in0.0 mm 0.00 in0.0 mm
09:35 PM 57.7°F14.3°C 54.2°F12.3°C 88% 2.3 mph SE3.7 kmh SE 3.5 mph5.6 kmh 29.96 in1014.6 mb - 0.00 in0.0 mm 0.00 in0.0 mm
09:40 PM 57.7°F14.3°C 54.2°F12.3°C 88% 2.3 mph E3.7 kmh E 3.5 mph5.6 kmh 29.96 in1014.6 mb - 0.00 in0.0 mm 0.00 in0.0 mm
09:45 PM 57.8°F14.3°C 54.2°F12.3°C 88% 2.3 mph E3.7 kmh E 3.5 mph5.6 kmh 29.96 in1014.6 mb - 0.00 in0.0 mm 0.00 in0.0 mm
09:50 PM 57.8°F14.3°C 54.3°F12.4°C 88% 3.5 mph E5.6 kmh E 3.5 mph5.6 kmh 29.96 in1014.6 mb - 0.00 in0.0 mm 0.00 in0.0 mm
09:55 PM 57.8°F14.3°C 54.3°F12.4°C 88% 2.3 mph E3.7 kmh E 3.5 mph5.6 kmh 29.96 in1014.6 mb - 0.00 in0.0 mm 0.00 in0.0 mm
10:00 PM 57.8°F14.3°C 54.3°F12.4°C 88% 3.5 mph ESE5.6 kmh ESE 3.5 mph5.6 kmh 29.96 in1014.6 mb - 0.00 in0.0 mm 0.00 in0.0 mm
10:10 PM 57.9°F14.4°C 54.4°F12.4°C 88% 3.5 mph ESE5.6 kmh ESE 3.5 mph5.6 kmh 29.96 in1014.6 mb - 0.00 in0.0 mm 0.00 in0.0 mm
10:15 PM 57.9°F14.4°C 54.4°F12.4°C 88% 2.3 mph SE3.7 kmh SE 2.3 mph3.7 kmh 29.96 in1014.6 mb - 0.00 in0.0 mm 0.00 in0.0 mm
10:20 PM 57.9°F14.4°C 54.4°F12.4°C 88% 3.5 mph E5.6 kmh E 6.9 mph11.1 kmh 29.96 in1014.6 mb - 0.00 in0.0 mm 0.00 in0.0 mm
10:25 PM 57.9°F14.4°C 54.4°F12.4°C 88% 2.3 mph SE3.7 kmh SE 3.5 mph5.6 kmh 29.96 in1014.6 mb - 0.00 in0.0 mm 0.00 in0.0 mm
10:30 PM 57.9°F14.4°C 54.4°F12.4°C 88% 1.2 mph ESE1.9 kmh ESE 3.5 mph5.6 kmh 29.96 in1014.6 mb - 0.00 in0.0 mm 0.00 in0.0 mm
10:35 PM 57.9°F14.4°C 54.4°F12.4°C 88% 2.3 mph E3.7 kmh E 3.5 mph5.6 kmh 29.95 in1014.2 mb - 0.00 in0.0 mm 0.00 in0.0 mm
10:40 PM 57.9°F14.4°C 54.4°F12.4°C 88% 1.2 mph SE1.9 kmh SE 3.5 mph5.6 kmh 29.95 in1014.2 mb - 0.00 in0.0 mm 0.00 in0.0 mm
10:45 PM 57.9°F14.4°C 54.7°F12.6°C 89% 1.2 mph SE1.9 kmh SE 3.5 mph5.6 kmh 29.95 in1014.2 mb - 0.00 in0.0 mm 0.00 in0.0 mm
10:50 PM 58.0°F14.4°C 54.8°F12.7°C 89% 2.3 mph SE3.7 kmh SE 3.5 mph5.6 kmh 29.96 in1014.6 mb - 0.00 in0.0 mm 0.00 in0.0 mm
10:55 PM 58.0°F14.4°C 54.8°F12.7°C 89% 1.2 mph SE1.9 kmh SE 2.3 mph3.7 kmh 29.96 in1014.6 mb - 0.00 in0.0 mm 0.00 in0.0 mm
11:00 PM 58.0°F14.4°C 54.8°F12.7°C 89% 1.2 mph SE1.9 kmh SE 2.3 mph3.7 kmh 29.95 in1014.2 mb - 0.00 in0.0 mm 0.00 in0.0 mm
11:10 PM 58.1°F14.5°C 54.9°F12.7°C 89% 1.2 mph ESE1.9 kmh ESE 2.3 mph3.7 kmh 29.95 in1014.2 mb - 0.00 in0.0 mm 0.00 in0.0 mm
11:15 PM 58.1°F14.5°C 54.9°F12.7°C 89% 1.2 mph SE1.9 kmh SE 1.2 mph1.9 kmh 29.95 in1014.2 mb - 0.00 in0.0 mm 0.00 in0.0 mm
11:20 PM 58.1°F14.5°C 54.9°F12.7°C 89% 2.3 mph ESE3.7 kmh ESE 3.5 mph5.6 kmh 29.95 in1014.2 mb - 0.00 in0.0 mm 0.00 in0.0 mm
11:25 PM 58.1°F14.5°C 54.9°F12.7°C 89% 2.3 mph ESE3.7 kmh ESE 3.5 mph5.6 kmh 29.95 in1014.2 mb - 0.00 in0.0 mm 0.00 in0.0 mm
11:30 PM 58.1°F14.5°C 54.9°F12.7°C 89% 1.2 mph SE1.9 kmh SE 2.3 mph3.7 kmh 29.95 in1014.2 mb - 0.00 in0.0 mm 0.00 in0.0 mm
11:35 PM 58.1°F14.5°C 54.9°F12.7°C 89% 1.2 mph E1.9 kmh E 3.5 mph5.6 kmh 29.95 in1014.2 mb - 0.00 in0.0 mm 0.00 in0.0 mm
11:40 PM 58.1°F14.5°C 54.9°F12.7°C 89% 1.2 mph E1.9 kmh E 2.3 mph3.7 kmh 29.95 in1014.2 mb - 0.00 in0.0 mm 0.00 in0.0 mm
11:45 PM 58.1°F14.5°C 54.9°F12.7°C 89% 1.2 mph E1.9 kmh E -- 29.95 in1014.2 mb - 0.00 in0.0 mm 0.00 in0.0 mm
11:50 PM 58.1°F14.5°C 54.9°F12.7°C 89% Calm Calm -- 29.95 in1014.2 mb - 0.00 in0.0 mm 0.00 in0.0 mm
11:55 PM 58.0°F14.4°C 54.8°F12.7°C 89% Calm Calm 1.2 mph1.9 kmh 29.95 in1014.2 mb - 0.00 in0.0 mm 0.00 in0.0 mm